Live aus Altenrhein
LIVE
LSZR 280150Z AUTO 24007KT 200V290 8000 -RA VCTS OVC070 SCT///CB 22/15 Q1004

People´s Info Center:

Öffnungszeiten Mo-Fr, 8-18 Uhr

 

info@peoples.ch

 
Aus Österreich:

T: +43 (0)5572 203 610

 

Aus CH / LI / DE:

T: +41 (0)71 858 51 60

 

Unsere 1. August Rundflüge sind ausgebucht!

 

 

1. August Rundflug

Erleben Sie Ihr Zuhause am Nationalfeiertag der Schweiz von oben!

 

People’s Viennaline bietet, passend zum Motto  „Zuhause abfliegen“, einen speziellen Rundflug am 1. August 2017 ab Altenrhein an. Während 45 Minuten fliegt der Regionaljet Embraer170 über die Schweizer Alpen - dabei werden bekannte Bergketten der Region wie z.B. der Säntis oder die Churfirsten umflogen.

 

Auf folgender Karte finden Sie die voraussichtliche Flugstrecke der Rundflüge.

Route ohne Gewähr, da sich die Strecke je nach Wetterverhältnissen ändern bzw. anpassen kann.

 

Buchen Sie jetzt Ihren Rundflug und erleben auch Sie Ihr Zuhause am Schweizer Nationalfeiertag von oben!

 

Datum und Abflugzeiten

Dienstag, 1. August 2017

 

  • Abflug 7.45 - 8.30 Uhr AUSGEBUCHT
  • Abflug 9.00 - 9.45 Uhr AUSGEBUCHT

 

Kosten

CHF 90.00 pro Person und Flug inkl. Taxen und MWST.

Kinder bis 2 Jahre gratis, ansonsten keine Kinderermässigungen und keine Sitzplatzreservationen. Stornierung nicht möglich.